sensor_id;sensor_type;location;lat;lon;timestamp;pressure;altitude;pressure_sealevel;temperature;humidity
79703;BME280;69172;52.352;5.006;2024-01-16T00:01:31;100906.41;;;1.55;100.00
79703;BME280;69172;52.352;5.006;2024-01-16T00:03:56;100913.59;;;1.51;100.00
79703;BME280;69172;52.352;5.006;2024-01-16T00:06:22;100914.09;;;1.47;100.00
79703;BME280;69172;52.352;5.006;2024-01-16T00:08:49;100914.50;;;1.51;100.00
79703;BME280;69172;52.352;5.006;2024-01-16T00:11:14;100917.13;;;1.61;100.00
79703;BME280;69172;52.352;5.006;2024-01-16T00:13:40;100910.25;;;1.60;100.00
79703;BME280;69172;52.352;5.006;2024-01-16T00:16:05;100912.44;;;1.66;100.00
79703;BME280;69172;52.352;5.006;2024-01-16T00:18:31;100925.41;;;1.69;100.00
79703;BME280;69172;52.352;5.006;2024-01-16T00:20:56;100926.19;;;1.68;100.00
79703;BME280;69172;52.352;5.006;2024-01-16T00:23:21;100916.16;;;1.69;100.00
79703;BME280;69172;52.352;5.006;2024-01-16T00:25:47;100914.59;;;1.61;100.00
79703;BME280;69172;52.352;5.006;2024-01-16T00:28:12;100923.66;;;1.68;100.00
79703;BME280;69172;52.352;5.006;2024-01-16T00:30:38;100923.66;;;1.68;100.00
79703;BME280;69172;52.352;5.006;2024-01-16T00:33:03;100923.78;;;1.69;100.00
79703;BME280;69172;52.352;5.006;2024-01-16T00:35:36;100920.22;;;1.67;100.00
79703;BME280;69172;52.352;5.006;2024-01-16T00:38:01;100911.72;;;1.67;100.00
79703;BME280;69172;52.352;5.006;2024-01-16T00:40:28;100917.91;;;1.79;100.00
79703;BME280;69172;52.352;5.006;2024-01-16T00:42:53;100915.09;;;1.76;100.00
79703;BME280;69172;52.352;5.006;2024-01-16T00:45:19;100912.22;;;1.82;100.00
79703;BME280;69172;52.352;5.006;2024-01-16T00:47:44;100921.47;;;1.81;100.00
79703;BME280;69172;52.352;5.006;2024-01-16T00:50:10;100927.00;;;1.77;100.00
79703;BME280;69172;52.352;5.006;2024-01-16T00:52:35;100930.88;;;1.82;100.00
79703;BME280;69172;52.352;5.006;2024-01-16T00:55:01;100926.03;;;1.85;100.00
79703;BME280;69172;52.352;5.006;2024-01-16T00:57:26;100923.25;;;1.82;100.00
79703;BME280;69172;52.352;5.006;2024-01-16T00:59:52;100933.66;;;1.85;100.00
79703;BME280;69172;52.352;5.006;2024-01-16T01:02:17;100967.50;;;1.86;100.00
79703;BME280;69172;52.352;5.006;2024-01-16T01:04:42;100968.94;;;1.46;100.00
79703;BME280;69172;52.352;5.006;2024-01-16T01:07:08;100968.41;;;1.23;100.00
79703;BME280;69172;52.352;5.006;2024-01-16T01:09:33;100975.31;;;1.15;100.00
79703;BME280;69172;52.352;5.006;2024-01-16T01:11:59;100960.84;;;1.14;100.00
79703;BME280;69172;52.352;5.006;2024-01-16T01:14:25;100961.47;;;1.03;100.00
79703;BME280;69172;52.352;5.006;2024-01-16T01:16:55;100964.47;;;0.99;100.00
79703;BME280;69172;52.352;5.006;2024-01-16T01:19:20;100970.47;;;0.91;100.00
79703;BME280;69172;52.352;5.006;2024-01-16T01:21:45;100957.50;;;0.88;100.00
79703;BME280;69172;52.352;5.006;2024-01-16T01:24:11;100949.03;;;0.79;100.00
79703;BME280;69172;52.352;5.006;2024-01-16T01:26:36;100951.25;;;0.76;100.00
79703;BME280;69172;52.352;5.006;2024-01-16T01:29:02;100949.94;;;0.71;100.00
79703;BME280;69172;52.352;5.006;2024-01-16T01:31:29;100948.63;;;0.66;100.00
79703;BME280;69172;52.352;5.006;2024-01-16T01:33:54;100948.19;;;0.62;100.00
79703;BME280;69172;52.352;5.006;2024-01-16T01:36:19;100952.94;;;0.58;100.00
79703;BME280;69172;52.352;5.006;2024-01-16T01:38:45;100958.13;;;0.60;100.00
79703;BME280;69172;52.352;5.006;2024-01-16T01:41:11;100969.94;;;0.59;100.00
79703;BME280;69172;52.352;5.006;2024-01-16T01:43:37;100964.69;;;0.67;100.00
79703;BME280;69172;52.352;5.006;2024-01-16T01:46:15;100971.84;;;0.71;100.00
79703;BME280;69172;52.352;5.006;2024-01-16T01:48:42;100975.53;;;0.74;100.00
79703;BME280;69172;52.352;5.006;2024-01-16T01:51:12;100974.38;;;0.71;100.00
79703;BME280;69172;52.352;5.006;2024-01-16T01:53:39;100976.75;;;0.78;100.00
79703;BME280;69172;52.352;5.006;2024-01-16T01:56:17;100959.31;;;0.81;100.00
79703;BME280;69172;52.352;5.006;2024-01-16T01:58:44;100953.22;;;0.79;100.00
79703;BME280;69172;52.352;5.006;2024-01-16T02:01:11;100943.84;;;0.78;100.00
79703;BME280;69172;52.352;5.006;2024-01-16T02:03:43;100955.28;;;0.83;100.00
79703;BME280;69172;52.352;5.006;2024-01-16T02:06:10;100950.38;;;0.84;100.00
79703;BME280;69172;52.352;5.006;2024-01-16T02:08:42;100952.91;;;0.84;100.00
79703;BME280;69172;52.352;5.006;2024-01-16T02:11:08;100962.56;;;0.88;100.00
79703;BME280;69172;52.352;5.006;2024-01-16T02:13:34;100945.47;;;0.86;100.00
79703;BME280;69172;52.352;5.006;2024-01-16T02:16:00;100951.25;;;0.85;100.00
79703;BME280;69172;52.352;5.006;2024-01-16T02:18:26;100948.44;;;0.82;100.00
79703;BME280;69172;52.352;5.006;2024-01-16T02:20:51;100955.16;;;0.81;100.00
79703;BME280;69172;52.352;5.006;2024-01-16T02:23:26;100942.50;;;0.81;100.00
79703;BME280;69172;52.352;5.006;2024-01-16T02:25:51;100938.91;;;0.79;100.00
79703;BME280;69172;52.352;5.006;2024-01-16T02:28:17;100937.28;;;0.71;100.00
79703;BME280;69172;52.352;5.006;2024-01-16T02:30:42;100937.88;;;0.77;100.00
79703;BME280;69172;52.352;5.006;2024-01-16T02:33:08;100944.44;;;0.75;100.00
79703;BME280;69172;52.352;5.006;2024-01-16T02:35:33;100942.81;;;0.67;100.00
79703;BME280;69172;52.352;5.006;2024-01-16T02:37:59;100944.31;;;0.56;100.00
79703;BME280;69172;52.352;5.006;2024-01-16T02:40:26;100953.38;;;0.63;100.00
79703;BME280;69172;52.352;5.006;2024-01-16T02:42:53;100958.13;;;0.60;100.00
79703;BME280;69172;52.352;5.006;2024-01-16T02:45:18;100953.84;;;0.59;100.00
79703;BME280;69172;52.352;5.006;2024-01-16T02:47:44;100946.84;;;0.56;100.00
79703;BME280;69172;52.352;5.006;2024-01-16T02:50:09;100944.47;;;0.58;100.00
79703;BME280;69172;52.352;5.006;2024-01-16T02:52:35;100941.81;;;0.56;100.00
79703;BME280;69172;52.352;5.006;2024-01-16T02:55:01;100937.16;;;0.52;100.00
79703;BME280;69172;52.352;5.006;2024-01-16T02:57:28;100934.66;;;0.52;100.00
79703;BME280;69172;52.352;5.006;2024-01-16T02:59:53;100942.22;;;0.52;100.00
79703;BME280;69172;52.352;5.006;2024-01-16T03:02:19;100933.75;;;0.52;100.00
79703;BME280;69172;52.352;5.006;2024-01-16T03:04:44;100942.25;;;0.44;100.00
79703;BME280;69172;52.352;5.006;2024-01-16T03:07:09;100943.72;;;0.42;100.00
79703;BME280;69172;52.352;5.006;2024-01-16T03:09:35;100933.91;;;0.36;100.00
79703;BME280;69172;52.352;5.006;2024-01-16T03:12:00;100935.25;;;0.33;100.00
79703;BME280;69172;52.352;5.006;2024-01-16T03:14:25;100936.00;;;0.32;100.00
79703;BME280;69172;52.352;5.006;2024-01-16T03:16:51;100935.84;;;0.30;100.00
79703;BME280;69172;52.352;5.006;2024-01-16T03:19:16;100926.19;;;0.35;100.00
79703;BME280;69172;52.352;5.006;2024-01-16T03:21:42;100923.38;;;0.32;100.00
79703;BME280;69172;52.352;5.006;2024-01-16T03:24:08;100930.50;;;0.27;100.00
79703;BME280;69172;52.352;5.006;2024-01-16T03:26:36;100918.91;;;0.29;100.00
79703;BME280;69172;52.352;5.006;2024-01-16T03:29:02;100924.25;;;0.32;100.00
79703;BME280;69172;52.352;5.006;2024-01-16T03:34:48;100926.94;;;0.34;100.00
79703;BME280;69172;52.352;5.006;2024-01-16T03:37:14;100932.88;;;0.34;100.00
79703;BME280;69172;52.352;5.006;2024-01-16T03:39:39;100931.38;;;0.36;100.00
79703;BME280;69172;52.352;5.006;2024-01-16T03:42:04;100926.94;;;0.42;100.00
79703;BME280;69172;52.352;5.006;2024-01-16T03:44:38;100925.28;;;0.43;100.00
79703;BME280;69172;52.352;5.006;2024-01-16T03:47:04;100930.50;;;0.44;100.00
79703;BME280;69172;52.352;5.006;2024-01-16T03:49:29;100928.25;;;0.47;100.00
79703;BME280;69172;52.352;5.006;2024-01-16T03:51:55;100918.59;;;0.43;100.00
79703;BME280;69172;52.352;5.006;2024-01-16T03:54:20;100926.31;;;0.45;100.00
79703;BME280;69172;52.352;5.006;2024-01-16T03:56:45;100917.84;;;0.44;100.00
79703;BME280;69172;52.352;5.006;2024-01-16T03:59:12;100931.09;;;0.42;100.00
79703;BME280;69172;52.352;5.006;2024-01-16T04:01:37;100926.50;;;0.38;100.00
79703;BME280;69172;52.352;5.006;2024-01-16T04:04:03;100922.16;;;0.37;100.00
79703;BME280;69172;52.352;5.006;2024-01-16T04:06:31;100926.63;;;0.39;100.00
79703;BME280;69172;52.352;5.006;2024-01-16T04:08:57;100924.22;;;0.41;100.00
79703;BME280;69172;52.352;5.006;2024-01-16T04:11:23;100921.41;;;0.46;100.00
79703;BME280;69172;52.352;5.006;2024-01-16T04:13:48;100916.94;;;0.44;100.00
79703;BME280;69172;52.352;5.006;2024-01-16T04:16:15;100923.66;;;0.43;100.00
79703;BME280;69172;52.352;5.006;2024-01-16T04:18:43;100927.22;;;0.45;100.00
79703;BME280;69172;52.352;5.006;2024-01-16T04:21:08;100928.56;;;0.42;100.00
79703;BME280;69172;52.352;5.006;2024-01-16T04:23:34;100927.66;;;0.41;100.00
79703;BME280;69172;52.352;5.006;2024-01-16T04:25:59;100938.06;;;0.44;100.00
79703;BME280;69172;52.352;5.006;2024-01-16T04:28:26;100920.66;;;0.47;100.00
79703;BME280;69172;52.352;5.006;2024-01-16T04:30:52;100926.19;;;0.43;100.00
79703;BME280;69172;52.352;5.006;2024-01-16T04:33:17;100919.34;;;0.42;100.00
79703;BME280;69172;52.352;5.006;2024-01-16T04:35:43;100918.59;;;0.43;100.00
79703;BME280;69172;52.352;5.006;2024-01-16T04:38:08;100916.63;;;0.41;100.00
79703;BME280;69172;52.352;5.006;2024-01-16T04:40:34;100914.41;;;0.44;100.00
79703;BME280;69172;52.352;5.006;2024-01-16T04:43:00;100911.44;;;0.39;100.00
79703;BME280;69172;52.352;5.006;2024-01-16T04:45:26;100905.66;;;0.40;100.00
79703;BME280;69172;52.352;5.006;2024-01-16T04:47:51;100904.34;;;0.35;100.00
79703;BME280;69172;52.352;5.006;2024-01-16T04:50:18;100895.97;;;0.36;100.00
79703;BME280;69172;52.352;5.006;2024-01-16T04:52:43;100900.91;;;0.26;100.00
79703;BME280;69172;52.352;5.006;2024-01-16T04:55:09;100904.75;;;0.31;100.00
79703;BME280;69172;52.352;5.006;2024-01-16T04:57:34;100898.50;;;0.28;100.00
79703;BME280;69172;52.352;5.006;2024-01-16T04:59:59;100898.69;;;0.29;100.00
79703;BME280;69172;52.352;5.006;2024-01-16T05:02:25;100897.06;;;0.21;100.00
79703;BME280;69172;52.352;5.006;2024-01-16T05:04:50;100892.44;;;0.17;100.00
79703;BME280;69172;52.352;5.006;2024-01-16T05:07:18;100893.47;;;0.19;100.00
79703;BME280;69172;52.352;5.006;2024-01-16T05:09:57;100896.88;;;0.20;100.00
79703;BME280;69172;52.352;5.006;2024-01-16T05:12:24;100890.66;;;0.16;100.00
79703;BME280;69172;52.352;5.006;2024-01-16T05:14:49;100887.06;;;0.14;100.00
79703;BME280;69172;52.352;5.006;2024-01-16T05:17:15;100893.91;;;0.15;100.00
79703;BME280;69172;52.352;5.006;2024-01-16T05:19:40;100888.88;;;0.15;100.00
79703;BME280;69172;52.352;5.006;2024-01-16T05:22:05;100886.94;;;0.13;100.00
79703;BME280;69172;52.352;5.006;2024-01-16T05:24:31;100892.44;;;0.09;100.00
79703;BME280;69172;52.352;5.006;2024-01-16T05:26:56;100891.81;;;0.11;100.00
79703;BME280;69172;52.352;5.006;2024-01-16T05:29:22;100879.06;;;0.18;100.00
79703;BME280;69172;52.352;5.006;2024-01-16T05:31:47;100881.28;;;0.24;100.00
79703;BME280;69172;52.352;5.006;2024-01-16T05:34:13;100875.44;;;0.25;100.00
79703;BME280;69172;52.352;5.006;2024-01-16T05:36:40;100869.34;;;0.31;100.00
79703;BME280;69172;52.352;5.006;2024-01-16T05:39:05;100867.13;;;0.34;100.00
79703;BME280;69172;52.352;5.006;2024-01-16T05:41:34;100852.38;;;0.39;100.00
79703;BME280;69172;52.352;5.006;2024-01-16T05:44:00;100849.69;;;0.46;100.00
79703;BME280;69172;52.352;5.006;2024-01-16T05:46:28;100841.81;;;0.43;100.00
79703;BME280;69172;52.352;5.006;2024-01-16T05:48:53;100838.81;;;0.47;100.00
79703;BME280;69172;52.352;5.006;2024-01-16T05:51:20;100848.94;;;0.47;100.00
79703;BME280;69172;52.352;5.006;2024-01-16T05:53:46;100850.44;;;0.45;100.00
79703;BME280;69172;52.352;5.006;2024-01-16T05:56:14;100866.94;;;0.41;100.00
79703;BME280;69172;52.352;5.006;2024-01-16T05:58:39;100863.41;;;0.39;100.00
79703;BME280;69172;52.352;5.006;2024-01-16T06:01:05;100862.97;;;0.35;100.00
79703;BME280;69172;52.352;5.006;2024-01-16T06:03:31;100868.03;;;0.35;100.00
79703;BME280;69172;52.352;5.006;2024-01-16T06:05:56;100861.78;;;0.31;100.00
79703;BME280;69172;52.352;5.006;2024-01-16T06:08:21;100867.25;;;0.36;100.00
79703;BME280;69172;52.352;5.006;2024-01-16T06:10:47;100862.19;;;0.36;100.00
79703;BME280;69172;52.352;5.006;2024-01-16T06:13:13;100869.19;;;0.38;100.00
79703;BME280;69172;52.352;5.006;2024-01-16T06:15:40;100877.38;;;0.36;100.00
79703;BME280;69172;52.352;5.006;2024-01-16T06:18:05;100874.84;;;0.36;100.00
79703;BME280;69172;52.352;5.006;2024-01-16T06:20:30;100877.06;;;0.33;100.00
79703;BME280;69172;52.352;5.006;2024-01-16T06:22:57;100878.88;;;0.34;100.00
79703;BME280;69172;52.352;5.006;2024-01-16T06:25:23;100884.53;;;0.31;100.00
79703;BME280;69172;52.352;5.006;2024-01-16T06:27:50;100892.84;;;0.30;100.00
79703;BME280;69172;52.352;5.006;2024-01-16T06:30:15;100894.22;;;0.35;100.00
79703;BME280;69172;52.352;5.006;2024-01-16T06:32:41;100894.22;;;0.35;100.00
79703;BME280;69172;52.352;5.006;2024-01-16T06:35:06;100898.50;;;0.36;100.00
79703;BME280;69172;52.352;5.006;2024-01-16T06:37:33;100889.59;;;0.31;100.00
79703;BME280;69172;52.352;5.006;2024-01-16T06:39:59;100893.31;;;0.35;100.00
79703;BME280;69172;52.352;5.006;2024-01-16T06:42:25;100890.63;;;0.33;100.00
79703;BME280;69172;52.352;5.006;2024-01-16T06:44:51;100884.53;;;0.31;100.00
79703;BME280;69172;52.352;5.006;2024-01-16T06:47:23;100881.56;;;0.27;100.00
79703;BME280;69172;52.352;5.006;2024-01-16T06:49:49;100874.00;;;0.27;100.00
79703;BME280;69172;52.352;5.006;2024-01-16T06:52:15;100873.81;;;0.25;100.00
79703;BME280;69172;52.352;5.006;2024-01-16T06:54:52;100865.34;;;0.25;100.00
79703;BME280;69172;52.352;5.006;2024-01-16T06:57:18;100861.78;;;0.31;100.00
79703;BME280;69172;52.352;5.006;2024-01-16T06:59:51;100854.19;;;0.31;100.00
79703;BME280;69172;52.352;5.006;2024-01-16T07:02:29;100862.66;;;0.32;100.00
79703;BME280;69172;52.352;5.006;2024-01-16T07:04:54;100848.94;;;0.38;100.00
79703;BME280;69172;52.352;5.006;2024-01-16T07:07:36;100860.25;;;0.42;100.00
79703;BME280;69172;52.352;5.006;2024-01-16T07:10:09;100853.09;;;0.46;100.00
79703;BME280;69172;52.352;5.006;2024-01-16T07:12:43;100851.16;;;0.52;100.00
79703;BME280;69172;52.352;5.006;2024-01-16T07:15:35;100857.22;;;0.63;100.00
79703;BME280;69172;52.352;5.006;2024-01-16T07:18:02;100858.09;;;0.72;100.00
79703;BME280;69172;52.352;5.006;2024-01-16T07:20:29;100883.09;;;0.78;100.00
79703;BME280;69172;52.352;5.006;2024-01-16T07:22:55;100878.16;;;0.79;100.00
79703;BME280;69172;52.352;5.006;2024-01-16T07:25:23;100886.81;;;0.81;100.00
79703;BME280;69172;52.352;5.006;2024-01-16T07:27:49;100888.13;;;0.86;100.00
79703;BME280;69172;52.352;5.006;2024-01-16T07:30:15;100889.16;;;0.88;100.00
79703;BME280;69172;52.352;5.006;2024-01-16T07:32:42;100894.69;;;0.84;100.00
79703;BME280;69172;52.352;5.006;2024-01-16T07:35:08;100893.03;;;0.85;100.00
79703;BME280;69172;52.352;5.006;2024-01-16T07:37:34;100890.66;;;0.86;100.00
79703;BME280;69172;52.352;5.006;2024-01-16T07:39:59;100883.97;;;0.87;100.00
79703;BME280;69172;52.352;5.006;2024-01-16T07:42:30;100892.59;;;0.80;100.00
79703;BME280;69172;52.352;5.006;2024-01-16T07:45:02;100904.25;;;0.78;100.00
79703;BME280;69172;52.352;5.006;2024-01-16T07:47:30;100899.34;;;0.63;100.00
79703;BME280;69172;52.352;5.006;2024-01-16T07:49:56;100909.19;;;0.59;100.00
79703;BME280;69172;52.352;5.006;2024-01-16T07:52:22;100897.00;;;0.55;100.00
79703;BME280;69172;52.352;5.006;2024-01-16T07:54:47;100891.81;;;0.54;100.00
79703;BME280;69172;52.352;5.006;2024-01-16T07:57:13;100896.38;;;0.58;100.00
79703;BME280;69172;52.352;5.006;2024-01-16T07:59:38;100885.81;;;0.62;100.00
79703;BME280;69172;52.352;5.006;2024-01-16T08:02:06;100896.06;;;0.72;100.00
79703;BME280;69172;52.352;5.006;2024-01-16T08:04:31;100891.72;;;0.71;100.00
79703;BME280;69172;52.352;5.006;2024-01-16T08:06:57;100889.81;;;0.69;100.00
79703;BME280;69172;52.352;5.006;2024-01-16T08:09:22;100886.53;;;0.70;100.00
79703;BME280;69172;52.352;5.006;2024-01-16T08:11:48;100892.63;;;0.72;100.00
79703;BME280;69172;52.352;5.006;2024-01-16T08:14:13;100896.97;;;0.64;100.00
79703;BME280;69172;52.352;5.006;2024-01-16T08:16:38;100901.75;;;0.61;100.00
79703;BME280;69172;52.352;5.006;2024-01-16T08:19:05;100897.56;;;0.70;100.00
79703;BME280;69172;52.352;5.006;2024-01-16T08:21:30;100892.81;;;0.65;100.00
79703;BME280;69172;52.352;5.006;2024-01-16T08:23:59;100896.66;;;0.78;100.00
79703;BME280;69172;52.352;5.006;2024-01-16T08:26:26;100891.13;;;0.74;100.00
79703;BME280;69172;52.352;5.006;2024-01-16T08:28:51;100895.94;;;0.62;100.00
79703;BME280;69172;52.352;5.006;2024-01-16T08:31:17;100899.09;;;0.59;100.00
79703;BME280;69172;52.352;5.006;2024-01-16T08:33:46;100883.44;;;0.55;100.00
79703;BME280;69172;52.352;5.006;2024-01-16T08:36:12;100883.59;;;0.56;100.00
79703;BME280;69172;52.352;5.006;2024-01-16T08:38:38;100887.03;;;0.57;100.00
79703;BME280;69172;52.352;5.006;2024-01-16T08:41:03;100895.03;;;0.70;100.00
79703;BME280;69172;52.352;5.006;2024-01-16T08:43:33;100887.97;;;0.85;100.00
79703;BME280;69172;52.352;5.006;2024-01-16T08:45:59;100894.03;;;0.95;100.00
79703;BME280;69172;52.352;5.006;2024-01-16T08:48:24;100897.78;;;0.90;100.00
79703;BME280;69172;52.352;5.006;2024-01-16T08:50:51;100899.56;;;0.91;100.00
79703;BME280;69172;52.352;5.006;2024-01-16T08:53:16;100897.75;;;0.99;100.00
79703;BME280;69172;52.352;5.006;2024-01-16T08:55:42;100893.19;;;0.86;100.00
79703;BME280;69172;52.352;5.006;2024-01-16T08:58:09;100882.81;;;0.75;100.00
79703;BME280;69172;52.352;5.006;2024-01-16T09:00:34;100873.53;;;0.92;100.00
79703;BME280;69172;52.352;5.006;2024-01-16T09:03:00;100869.00;;;0.98;100.00
79703;BME280;69172;52.352;5.006;2024-01-16T09:05:28;100866.50;;;0.90;100.00
79703;BME280;69172;52.352;5.006;2024-01-16T09:07:53;100868.72;;;0.95;100.00
79703;BME280;69172;52.352;5.006;2024-01-16T09:10:18;100867.09;;;0.87;100.00
79703;BME280;69172;52.352;5.006;2024-01-16T09:12:45;100872.41;;;1.07;100.00
79703;BME280;69172;52.352;5.006;2024-01-16T09:15:11;100873.03;;;0.96;100.00
79703;BME280;69172;52.352;5.006;2024-01-16T09:17:37;100870.13;;;0.83;100.00
79703;BME280;69172;52.352;5.006;2024-01-16T09:20:05;100869.19;;;0.91;100.00
79703;BME280;69172;52.352;5.006;2024-01-16T09:22:31;100878.53;;;1.01;100.00
79703;BME280;69172;52.352;5.006;2024-01-16T09:25:00;100881.69;;;0.90;100.00
79703;BME280;69172;52.352;5.006;2024-01-16T09:27:26;100879.16;;;0.90;100.00
79703;BME280;69172;52.352;5.006;2024-01-16T09:29:52;100871.50;;;1.07;100.00
79703;BME280;69172;52.352;5.006;2024-01-16T09:32:17;100869.38;;;1.11;100.00
79703;BME280;69172;52.352;5.006;2024-01-16T09:34:44;100872.16;;;0.96;100.00
79703;BME280;69172;52.352;5.006;2024-01-16T09:37:09;100870.06;;;1.00;100.00
79703;BME280;69172;52.352;5.006;2024-01-16T09:39:34;100873.47;;;1.01;100.00
79703;BME280;69172;52.352;5.006;2024-01-16T09:42:03;100866.47;;;0.98;100.00
79703;BME280;69172;52.352;5.006;2024-01-16T09:44:31;100874.03;;;1.07;100.00
79703;BME280;69172;52.352;5.006;2024-01-16T09:46:57;100869.63;;;1.23;100.00
79703;BME280;69172;52.352;5.006;2024-01-16T09:49:23;100869.31;;;1.29;100.00
79703;BME280;69172;52.352;5.006;2024-01-16T09:51:49;100861.94;;;1.13;100.00
79703;BME280;69172;52.352;5.006;2024-01-16T09:54:14;100871.47;;;1.15;100.00
79703;BME280;69172;52.352;5.006;2024-01-16T09:56:43;100862.81;;;1.22;100.00
79703;BME280;69172;52.352;5.006;2024-01-16T09:59:12;100865.59;;;1.25;100.00
79703;BME280;69172;52.352;5.006;2024-01-16T10:01:41;100858.09;;;1.35;100.00
79703;BME280;69172;52.352;5.006;2024-01-16T10:04:06;100846.53;;;1.47;100.00
79703;BME280;69172;52.352;5.006;2024-01-16T10:06:33;100847.84;;;1.52;100.00
79703;BME280;69172;52.352;5.006;2024-01-16T10:08:59;100847.72;;;1.51;100.00
79703;BME280;69172;52.352;5.006;2024-01-16T10:11:25;100844.06;;;1.39;100.00
79703;BME280;69172;52.352;5.006;2024-01-16T10:13:51;100856.06;;;1.50;100.00
79703;BME280;69172;52.352;5.006;2024-01-16T10:16:16;100849.03;;;1.56;100.00
79703;BME280;69172;52.352;5.006;2024-01-16T10:18:41;100851.84;;;1.59;100.00
79703;BME280;69172;52.352;5.006;2024-01-16T10:21:21;100849.09;;;1.66;100.00
79703;BME280;69172;52.352;5.006;2024-01-16T10:23:47;100854.72;;;1.72;100.00
79703;BME280;69172;52.352;5.006;2024-01-16T10:26:12;100853.69;;;1.70;100.00
79703;BME280;69172;52.352;5.006;2024-01-16T10:28:41;100844.34;;;1.60;100.00
79703;BME280;69172;52.352;5.006;2024-01-16T10:31:11;100845.75;;;1.57;100.00
79703;BME280;69172;52.352;5.006;2024-01-16T10:33:38;100838.81;;;1.64;100.00
79703;BME280;69172;52.352;5.006;2024-01-16T10:36:11;100830.88;;;1.70;100.00
79703;BME280;69172;52.352;5.006;2024-01-16T10:38:41;100837.94;;;1.83;100.00
79703;BME280;69172;52.352;5.006;2024-01-16T10:41:10;100842.75;;;1.98;100.00
79703;BME280;69172;52.352;5.006;2024-01-16T10:43:36;100844.94;;;2.04;100.00
79703;BME280;69172;52.352;5.006;2024-01-16T10:46:15;100840.91;;;1.87;100.00
79703;BME280;69172;52.352;5.006;2024-01-16T10:49:03;100831.63;;;1.88;100.00
79703;BME280;69172;52.352;5.006;2024-01-16T10:51:30;100828.22;;;1.87;100.00
79703;BME280;69172;52.352;5.006;2024-01-16T10:54:02;100836.78;;;1.79;100.00
79703;BME280;69172;52.352;5.006;2024-01-16T10:56:31;100829.03;;;1.77;100.00
79703;BME280;69172;52.352;5.006;2024-01-16T10:59:18;100831.09;;;1.82;100.00
79703;BME280;69172;52.352;5.006;2024-01-16T11:01:54;100830.47;;;1.84;100.00
79703;BME280;69172;52.352;5.006;2024-01-16T11:04:20;100816.69;;;1.91;100.00
79703;BME280;69172;52.352;5.006;2024-01-16T11:06:47;100817.91;;;2.04;100.00
79703;BME280;69172;52.352;5.006;2024-01-16T11:09:13;100821.59;;;2.08;98.89
79703;BME280;69172;52.352;5.006;2024-01-16T11:11:43;100811.00;;;2.12;97.02
79703;BME280;69172;52.352;5.006;2024-01-16T11:14:11;100807.69;;;2.13;95.01
79703;BME280;69172;52.352;5.006;2024-01-16T11:16:39;100806.97;;;2.24;94.60
79703;BME280;69172;52.352;5.006;2024-01-16T11:19:07;100796.84;;;2.34;93.49
79703;BME280;69172;52.352;5.006;2024-01-16T11:21:34;100800.44;;;2.36;90.86
79703;BME280;69172;52.352;5.006;2024-01-16T11:24:00;100791.78;;;2.34;90.99
79703;BME280;69172;52.352;5.006;2024-01-16T11:26:30;100791.69;;;2.42;90.57
79703;BME280;69172;52.352;5.006;2024-01-16T11:31:53;100793.31;;;2.42;87.31
79703;BME280;69172;52.352;5.006;2024-01-16T11:37:11;100787.53;;;2.53;82.53
79703;BME280;69172;52.352;5.006;2024-01-16T11:39:36;100789.59;;;2.57;81.48
79703;BME280;69172;52.352;5.006;2024-01-16T11:42:02;100785.69;;;2.61;79.72
79703;BME280;69172;52.352;5.006;2024-01-16T11:44:47;100783.22;;;2.52;77.36
79703;BME280;69172;52.352;5.006;2024-01-16T11:47:21;100779.28;;;2.56;76.65
79703;BME280;69172;52.352;5.006;2024-01-16T11:49:47;100778.28;;;2.54;76.64
79703;BME280;69172;52.352;5.006;2024-01-16T11:52:14;100773.09;;;2.52;77.61
79703;BME280;69172;52.352;5.006;2024-01-16T11:54:41;100763.94;;;2.44;77.81
79703;BME280;69172;52.352;5.006;2024-01-16T11:57:26;100763.94;;;2.44;78.27
79703;BME280;69172;52.352;5.006;2024-01-16T12:00:02;100761.88;;;2.40;76.90
79703;BME280;69172;52.352;5.006;2024-01-16T12:02:54;100768.72;;;2.41;77.71
79703;BME280;69172;52.352;5.006;2024-01-16T12:05:21;100767.72;;;2.39;76.89
79703;BME280;69172;52.352;5.006;2024-01-16T12:10:15;100752.72;;;2.32;77.11
79703;BME280;69172;52.352;5.006;2024-01-16T12:12:41;100760.69;;;2.36;76.98
79703;BME280;69172;52.352;5.006;2024-01-16T12:15:19;100762.66;;;2.39;77.30
79703;BME280;69172;52.352;5.006;2024-01-16T12:17:58;100760.50;;;2.44;75.82
79703;BME280;69172;52.352;5.006;2024-01-16T12:20:28;100760.25;;;2.51;76.40
79703;BME280;69172;52.352;5.006;2024-01-16T12:22:54;100755.84;;;2.58;75.86
79703;BME280;69172;52.352;5.006;2024-01-16T12:25:21;100757.22;;;2.65;74.48
79703;BME280;69172;52.352;5.006;2024-01-16T12:27:54;100752.31;;;2.66;73.97
79703;BME280;69172;52.352;5.006;2024-01-16T12:30:27;100743.00;;;2.67;73.26
79703;BME280;69172;52.352;5.006;2024-01-16T12:33:13;100747.97;;;2.65;73.37
79703;BME280;69172;52.352;5.006;2024-01-16T12:35:41;100747.47;;;2.69;73.68
79703;BME280;69172;52.352;5.006;2024-01-16T12:38:10;100760.81;;;2.77;73.54
79703;BME280;69172;52.352;5.006;2024-01-16T12:40:39;100755.22;;;2.81;72.71
79703;BME280;69172;52.352;5.006;2024-01-16T12:43:09;100743.81;;;2.86;71.31
79703;BME280;69172;52.352;5.006;2024-01-16T12:45:35;100756.00;;;2.90;70.64
79703;BME280;69172;52.352;5.006;2024-01-16T12:48:01;100746.50;;;2.97;71.34
79703;BME280;69172;52.352;5.006;2024-01-16T12:50:30;100749.03;;;2.97;71.36
79703;BME280;69172;52.352;5.006;2024-01-16T12:53:06;100749.66;;;2.95;70.98
79703;BME280;69172;52.352;5.006;2024-01-16T12:55:38;100735.28;;;2.85;70.29
79703;BME280;69172;52.352;5.006;2024-01-16T12:58:17;100738.22;;;2.80;70.39
79703;BME280;69172;52.352;5.006;2024-01-16T13:00:47;100733.66;;;2.76;70.79
79703;BME280;69172;52.352;5.006;2024-01-16T13:03:21;100741.00;;;2.73;72.29